Time;durP1;ratioP1;P1;durP2;ratioP2;P2;SDS_P1;SDS_P2;PMS_P1;PMS_P2;Temp;Humidity;BMP_temperature;BMP_pressure;BME280_temperature;BME280_humidity;BME280_pressure;Samples;Min_cycle;Max_cycle;Signal;HPM_P1;HPM_P2
2022/01/21 00:00:10;;;;;;;;;;;;;;;22.43;19.31;97652.25;5075041;28;902;-73
2022/01/21 00:02:35;;;;;;;;;;;;;;;22.82;19.02;97648.00;5074721;28;924;-73
2022/01/21 00:05:01;;;;;;;;;;;;;;;22.60;19.14;97648.00;5113060;28;1906;-73
2022/01/21 00:07:26;;;;;;;;;;;;;;;22.36;19.55;97651.25;5113190;28;971;-74
2022/01/21 00:09:51;;;;;;;;;;;;;;;22.17;19.74;97655.16;5113117;28;1058;-74
2022/01/21 00:12:17;;;;;;;;;;;;;;;22.47;19.40;97650.06;5113175;28;1129;-73
2022/01/21 00:14:43;;;;;;;;;;;;;;;22.74;19.24;97647.47;5113113;28;1099;-73
2022/01/21 00:17:09;;;;;;;;;;;;;;;22.60;19.29;97659.34;5112887;28;959;-73
2022/01/21 00:19:39;;;;;;;;;;;;;;;21.63;20.18;97661.78;5112991;28;1309;-74
2022/01/21 00:30:19;;;;;;;;;;;;;;;22.69;19.00;97673.59;5087681;28;1001;-74
2022/01/21 00:32:45;;;;;;;;;;;;;;;22.46;19.34;97677.63;5100051;28;967;-73
2022/01/21 00:35:11;;;;;;;;;;;;;;;21.97;19.98;97674.47;5072687;28;1457;-74
2022/01/21 00:37:37;;;;;;;;;;;;;;;22.16;19.75;97681.91;5056114;28;1005;-73
2022/01/21 00:40:03;;;;;;;;;;;;;;;22.36;19.68;97668.25;5072689;28;999;-73
2022/01/21 00:45:03;;;;;;;;;;;;;;;22.80;19.06;97650.50;5055824;28;1902;-73
2022/01/21 00:47:29;;;;;;;;;;;;;;;22.21;19.90;97661.50;5072274;28;988;-74
2022/01/21 00:49:56;;;;;;;;;;;;;;;22.38;19.41;97652.81;5055753;28;1033;-74
2022/01/21 00:52:21;;;;;;;;;;;;;;;22.32;19.34;97647.75;5055295;28;1201;-74
2022/01/21 00:54:47;;;;;;;;;;;;;;;22.57;19.60;97648.91;5055077;28;981;-74
2022/01/21 00:57:13;;;;;;;;;;;;;;;22.80;19.15;97644.84;5035140;28;948;-73
2022/01/21 00:59:38;;;;;;;;;;;;;;;22.65;19.29;97644.56;5035657;28;984;-73
2022/01/21 01:02:06;;;;;;;;;;;;;;;21.90;19.98;97646.34;5035299;28;1367;-74
2022/01/21 01:04:32;;;;;;;;;;;;;;;21.82;20.49;97646.59;5035471;28;1086;-73
2022/01/21 01:07:00;;;;;;;;;;;;;;;22.19;19.66;97647.00;5035275;28;1902;-73
2022/01/21 01:09:26;;;;;;;;;;;;;;;22.23;19.89;97650.50;5034727;28;1030;-74
2022/01/21 01:22:29;;;;;;;;;;;;;;;22.16;20.06;97636.56;5035117;28;977;-73
2022/01/21 01:27:42;;;;;;;;;;;;;;;22.97;18.79;97636.94;5020336;28;1134;-73
2022/01/21 01:30:12;;;;;;;;;;;;;;;22.65;19.33;97638.91;5034465;28;1038;-74
2022/01/21 01:32:38;;;;;;;;;;;;;;;22.43;19.63;97638.84;5034398;28;1172;-73
2022/01/21 01:35:04;;;;;;;;;;;;;;;22.34;19.70;97647.31;5034464;28;1162;-74
2022/01/21 01:40:12;;;;;;;;;;;;;;;23.10;18.77;97634.78;5034277;28;1027;-74
2022/01/21 01:50:47;;;;;;;;;;;;;;;22.59;19.16;97630.19;4995003;28;1067;-74
2022/01/21 01:53:13;;;;;;;;;;;;;;;22.06;18.49;97436.53;4975148;28;991;-73
2022/01/21 01:55:39;;;;;;;;;;;;;;;22.52;19.11;97629.66;4975749;28;1013;-73
2022/01/21 01:58:04;;;;;;;;;;;;;;;21.96;19.92;97621.84;4975403;28;962;-73
2022/01/21 02:00:30;;;;;;;;;;;;;;;22.21;19.72;97627.50;4975317;28;1248;-74
2022/01/21 02:03:27;;;;;;;;;;;;;;;22.90;18.87;97629.50;4975214;28;1280;-73
2022/01/21 02:05:53;;;;;;;;;;;;;;;22.63;19.24;97641.38;4971559;28;1986;-74
2022/01/21 02:08:18;;;;;;;;;;;;;;;22.43;19.24;97632.41;4978323;28;1232;-74
2022/01/21 02:10:44;;;;;;;;;;;;;;;21.51;20.38;97632.25;4994877;28;959;-73
2022/01/21 02:13:25;;;;;;;;;;;;;;;22.34;19.46;97636.75;5000509;28;974;-74
2022/01/21 02:16:06;;;;;;;;;;;;;;;22.91;18.65;97633.91;5016441;28;1447;-73
2022/01/21 02:21:31;;;;;;;;;;;;;;;22.05;19.57;97641.78;4984014;28;1159;-73
2022/01/21 02:23:58;;;;;;;;;;;;;;;22.08;19.55;97646.56;5013799;28;1612;-73
2022/01/21 02:26:24;;;;;;;;;;;;;;;22.72;19.14;97655.63;5013895;28;1914;-74
2022/01/21 02:28:49;;;;;;;;;;;;;;;23.00;18.81;97650.19;5014145;28;1011;-73
2022/01/21 02:31:15;;;;;;;;;;;;;;;22.53;19.04;97660.38;5013877;28;1327;-74
2022/01/21 02:33:40;;;;;;;;;;;;;;;22.21;19.31;97661.50;5013813;28;1201;-73
2022/01/21 02:36:06;;;;;;;;;;;;;;;21.78;20.04;97654.41;5013400;28;1067;-73
2022/01/21 02:38:31;;;;;;;;;;;;;;;22.76;18.83;97650.63;4997181;28;1281;-74
2022/01/21 02:40:57;;;;;;;;;;;;;;;22.77;18.70;97652.22;5018846;28;1129;-74
2022/01/21 02:43:22;;;;;;;;;;;;;;;22.36;19.27;97651.25;4999925;28;1088;-74
2022/01/21 02:45:50;;;;;;;;;;;;;;;22.16;19.74;97645.06;4983866;28;1911;-74
2022/01/21 02:48:16;;;;;;;;;;;;;;;22.34;19.43;97641.63;5013377;28;1439;-73
2022/01/21 02:50:47;;;;;;;;;;;;;;;22.98;18.87;97644.19;5013393;28;1549;-74
2022/01/21 02:55:58;;;;;;;;;;;;;;;22.49;19.42;97654.06;4993684;28;1253;-73
2022/01/21 02:58:25;;;;;;;;;;;;;;;22.19;19.71;97652.66;4993761;28;1191;-73
2022/01/21 03:00:51;;;;;;;;;;;;;;;22.26;19.39;97652.41;4974021;28;2058;-73
2022/01/21 03:03:17;;;;;;;;;;;;;;;23.00;18.58;97658.69;4958180;28;920;-74
2022/01/21 03:05:43;;;;;;;;;;;;;;;23.37;18.15;97657.66;4957830;28;1922;-74
2022/01/21 03:08:08;;;;;;;;;;;;;;;22.86;18.72;97655.13;4975139;28;1314;-74
2022/01/21 03:10:39;;;;;;;;;;;;;;;22.16;19.66;97653.56;4993485;28;1120;-73
2022/01/21 03:13:05;;;;;;;;;;;;;;;21.76;20.23;97659.75;4976882;28;1119;-73
2022/01/21 03:15:30;;;;;;;;;;;;;;;22.14;19.99;97653.25;4977419;28;1348;-74
2022/01/21 03:17:56;;;;;;;;;;;;;;;23.08;18.47;97657.19;4993142;28;1198;-74
2022/01/21 03:20:24;;;;;;;;;;;;;;;22.58;18.99;97650.47;4956151;28;1678;-74
2022/01/21 03:22:50;;;;;;;;;;;;;;;22.29;19.46;97647.88;4954723;29;1196;-74
2022/01/21 03:25:16;;;;;;;;;;;;;;;22.34;19.68;97642.41;4935174;29;1911;-73
2022/01/21 03:27:41;;;;;;;;;;;;;;;22.83;18.92;97633.34;4919790;29;1121;-73
2022/01/21 03:30:07;;;;;;;;;;;;;;;22.88;18.98;97623.47;4935185;29;1031;-74
2022/01/21 03:32:39;;;;;;;;;;;;;;;22.41;19.43;97623.56;4944298;28;1576;-74
2022/01/21 03:35:08;;;;;;;;;;;;;;;22.05;19.82;97624.78;4992903;28;1423;-73
2022/01/21 03:37:34;;;;;;;;;;;;;;;22.10;19.85;97624.22;4977130;28;1103;-74
2022/01/21 03:40:00;;;;;;;;;;;;;;;23.06;18.84;97629.28;4992984;28;1309;-74
2022/01/21 03:42:25;;;;;;;;;;;;;;;22.68;19.13;97620.94;4990020;28;1379;-73
2022/01/21 03:44:53;;;;;;;;;;;;;;;21.87;19.75;97621.78;4973543;28;2005;-74
2022/01/21 03:47:19;;;;;;;;;;;;;;;21.74;19.98;97628.25;4990046;28;1357;-73
2022/01/21 03:49:53;;;;;;;;;;;;;;;22.86;18.82;97637.31;5025996;28;1381;-73
2022/01/21 03:52:23;;;;;;;;;;;;;;;22.61;19.27;97626.88;5016135;28;1733;-74
2022/01/21 03:54:49;;;;;;;;;;;;;;;22.25;19.53;97628.16;5017018;28;1072;-74
2022/01/21 03:57:15;;;;;;;;;;;;;;;22.15;19.73;97623.66;5057457;28;1084;-73
2022/01/21 03:59:40;;;;;;;;;;;;;;;22.60;19.49;97613.97;5093354;28;1581;-74
2022/01/21 04:02:06;;;;;;;;;;;;;;;22.90;18.82;97631.50;5076456;28;1197;-74
2022/01/21 04:04:33;;;;;;;;;;;;;;;22.17;19.64;97621.16;5076500;28;1455;-73
2022/01/21 04:07:03;;;;;;;;;;;;;;;22.34;19.56;97614.06;5075985;28;1968;-73
2022/01/21 04:09:33;;;;;;;;;;;;;;;21.40;20.61;97619.66;5059497;28;1478;-74
2022/01/21 04:12:00;;;;;;;;;;;;;;;22.87;18.85;97622.66;5076788;28;1095;-73
2022/01/21 04:14:25;;;;;;;;;;;;;;;22.63;19.10;97613.03;5076287;28;1155;-74
2022/01/21 04:16:52;;;;;;;;;;;;;;;21.89;20.10;97616.44;5076123;28;1123;-73
2022/01/21 04:19:17;;;;;;;;;;;;;;;21.40;20.85;97606.31;5093062;28;1571;-73
2022/01/21 04:21:45;;;;;;;;;;;;;;;22.14;19.75;97612.78;5058956;28;1324;-74
2022/01/21 04:24:15;;;;;;;;;;;;;;;22.41;19.29;97612.22;5058977;28;1396;-74
2022/01/21 04:26:42;;;;;;;;;;;;;;;22.46;19.24;97608.81;5059073;28;1910;-74
2022/01/21 04:29:10;;;;;;;;;;;;;;;22.52;19.31;97606.97;5075531;28;1037;-74
2022/01/21 04:31:48;;;;;;;;;;;;;;;22.28;19.69;97613.09;5055826;28;1164;-73
2022/01/21 04:34:16;;;;;;;;;;;;;;;21.51;20.34;97605.97;5075101;28;1220;-73
2022/01/21 04:36:43;;;;;;;;;;;;;;;22.30;19.61;97604.13;5059094;28;1318;-74
2022/01/21 04:39:15;;;;;;;;;;;;;;;21.89;20.10;97622.09;5009637;28;1304;-74
2022/01/21 04:49:39;;;;;;;;;;;;;;;21.58;20.49;97636.88;4996041;28;1295;-73
2022/01/21 04:52:06;;;;;;;;;;;;;;;22.38;19.58;97627.31;4996312;28;1158;-73
2022/01/21 04:54:45;;;;;;;;;;;;;;;22.29;19.63;97625.22;4995428;28;1408;-74
2022/01/21 04:57:10;;;;;;;;;;;;;;;22.35;19.36;97632.66;4969839;28;1140;-74
2022/01/21 04:59:38;;;;;;;;;;;;;;;22.54;19.51;97615.81;4973195;28;1107;-74
2022/01/21 05:02:04;;;;;;;;;;;;;;;22.22;19.39;97623.41;4950249;28;1347;-74
2022/01/21 05:04:30;;;;;;;;;;;;;;;21.84;20.00;97618.59;4953124;28;1495;-75
2022/01/21 05:06:57;;;;;;;;;;;;;;;22.35;19.34;97631.88;4937339;28;1975;-74
2022/01/21 05:09:29;;;;;;;;;;;;;;;22.43;19.19;97643.75;4937534;28;1018;-73
2022/01/21 05:11:56;;;;;;;;;;;;;;;22.34;19.43;97650.94;4938267;28;1422;-74
2022/01/21 05:14:25;;;;;;;;;;;;;;;22.27;19.79;97654.00;4937489;28;1086;-73
2022/01/21 05:17:04;;;;;;;;;;;;;;;22.41;19.52;97666.09;4937884;28;1211;-73
2022/01/21 05:19:29;;;;;;;;;;;;;;;22.30;19.50;97678.59;4975718;28;965;-74
2022/01/21 05:22:07;;;;;;;;;;;;;;;22.43;19.22;97677.75;5004752;28;1559;-74
2022/01/21 05:24:38;;;;;;;;;;;;;;;22.34;19.60;97676.44;4995350;28;1143;-74
2022/01/21 05:27:06;;;;;;;;;;;;;;;22.23;19.85;97693.03;4979257;28;1910;-74
2022/01/21 05:29:39;;;;;;;;;;;;;;;22.70;19.21;97689.34;4986364;28;1080;-74
2022/01/21 05:32:15;;;;;;;;;;;;;;;22.99;18.67;97685.50;5058180;28;1257;-73
2022/01/21 05:34:55;;;;;;;;;;;;;;;22.53;19.11;97685.09;5033767;28;1230;-73
2022/01/21 05:37:41;;;;;;;;;;;;;;;22.59;19.49;97677.59;5074359;28;1160;-74
2022/01/21 05:40:17;;;;;;;;;;;;;;;22.34;19.64;97682.09;5057767;28;1120;-74
2022/01/21 05:43:01;;;;;;;;;;;;;;;22.16;19.61;97696.06;5054203;28;1053;-73
2022/01/21 05:48:47;;;;;;;;;;;;;;;22.34;19.42;97710.44;5054176;28;1064;-74
2022/01/21 05:51:31;;;;;;;;;;;;;;;22.15;19.67;97714.34;5054027;28;890;-73
2022/01/21 05:54:09;;;;;;;;;;;;;;;22.34;19.46;97710.44;5014661;28;968;-73
2022/01/21 05:56:54;;;;;;;;;;;;;;;22.81;19.15;97714.50;4969525;28;1318;-74
2022/01/21 05:59:33;;;;;;;;;;;;;;;23.00;18.65;97712.59;4989765;28;1586;-74
2022/01/21 06:02:01;;;;;;;;;;;;;;;22.21;19.52;97712.50;4939818;29;1187;-73
2022/01/21 06:04:26;;;;;;;;;;;;;;;22.01;19.92;97711.94;4955885;29;1100;-74
2022/01/21 06:06:52;;;;;;;;;;;;;;;22.81;19.38;97714.50;4936612;29;1899;-74
2022/01/21 06:09:17;;;;;;;;;;;;;;;23.35;18.40;97702.75;4955691;28;1253;-73
2022/01/21 06:11:43;;;;;;;;;;;;;;;22.56;19.19;97706.88;4936509;29;1146;-73
2022/01/21 06:14:08;;;;;;;;;;;;;;;22.09;19.93;97716.91;4931533;29;1015;-73
2022/01/21 06:16:34;;;;;;;;;;;;;;;22.32;19.63;97724.28;4955517;28;1032;-73
2022/01/21 06:19:00;;;;;;;;;;;;;;;22.89;19.22;97715.84;4954723;28;1002;-73
2022/01/21 06:21:26;;;;;;;;;;;;;;;23.11;18.99;97715.88;4955700;28;1023;-73
2022/01/21 06:23:51;;;;;;;;;;;;;;;22.06;19.80;97712.16;4940064;28;986;-73
2022/01/21 06:26:17;;;;;;;;;;;;;;;21.82;20.09;97720.25;4974595;28;1895;-74
2022/01/21 06:28:43;;;;;;;;;;;;;;;22.45;19.54;97726.31;4974611;28;953;-73
2022/01/21 06:31:08;;;;;;;;;;;;;;;23.05;19.03;97729.03;4960648;28;1031;-74
2022/01/21 06:33:33;;;;;;;;;;;;;;;22.57;19.48;97745.31;4955246;29;981;-74
2022/01/21 06:35:59;;;;;;;;;;;;;;;22.47;19.73;97757.81;4942146;28;1033;-73
2022/01/21 06:38:24;;;;;;;;;;;;;;;22.11;20.00;97756.16;4925294;29;1087;-74
2022/01/21 06:40:50;;;;;;;;;;;;;;;22.41;19.62;97765.31;4955468;28;1024;-74
2022/01/21 06:43:15;;;;;;;;;;;;;;;23.16;18.96;97774.06;5011192;28;1238;-73
2022/01/21 06:45:43;;;;;;;;;;;;;;;22.12;19.96;97777.56;5036077;28;1989;-73
2022/01/21 06:48:09;;;;;;;;;;;;;;;21.70;20.39;97791.81;5075533;28;977;-74
2022/01/21 06:50:36;;;;;;;;;;;;;;;22.83;19.10;97791.41;5107421;28;1330;-73
2022/01/21 06:53:01;;;;;;;;;;;;;;;23.25;18.79;97789.13;5093438;28;978;-74
2022/01/21 06:55:26;;;;;;;;;;;;;;;22.47;19.59;97797.50;5093041;28;1036;-74
2022/01/21 06:57:52;;;;;;;;;;;;;;;21.98;20.18;97806.34;5200370;22;3766;-73
2022/01/21 07:00:21;;;;;;;;;;;;;;;22.66;19.33;97798.50;5076476;28;1262;-73
2022/01/21 07:02:46;;;;;;;;;;;;;;;23.31;18.86;97800.66;5076662;28;900;-73
2022/01/21 07:05:12;;;;;;;;;;;;;;;22.60;19.31;97784.91;5092047;28;1976;-72
2022/01/21 07:07:38;;;;;;;;;;;;;;;21.91;19.84;97795.22;5076841;28;848;-73
2022/01/21 07:10:05;;;;;;;;;;;;;;;22.05;20.06;97772.13;5094020;28;996;-72
2022/01/21 07:12:30;;;;;;;;;;;;;;;23.04;18.86;97778.53;5094783;28;1048;-72
2022/01/21 07:14:56;;;;;;;;;;;;;;;22.91;19.02;97770.09;5053789;28;1315;-72
2022/01/21 07:17:21;;;;;;;;;;;;;;;22.26;19.85;97768.63;5054160;28;900;-73
2022/01/21 07:19:47;;;;;;;;;;;;;;;22.04;20.29;97760.00;5053895;28;1129;-72
2022/01/21 07:22:13;;;;;;;;;;;;;;;22.94;19.09;97762.69;5037321;28;1045;-73
2022/01/21 07:24:38;;;;;;;;;;;;;;;23.14;19.03;97771.69;5016949;28;1078;-73
2022/01/21 07:27:04;;;;;;;;;;;;;;;21.73;20.55;97778.78;5014154;28;1906;-72
2022/01/21 07:29:29;;;;;;;;;;;;;;;21.45;20.89;97786.09;5013561;28;1014;-72
2022/01/21 07:31:55;;;;;;;;;;;;;;;21.98;20.29;97783.69;5013833;28;1003;-72
2022/01/21 07:34:23;;;;;;;;;;;;;;;22.02;20.25;97773.84;5013908;28;974;-72
2022/01/21 07:36:49;;;;;;;;;;;;;;;22.56;19.34;97780.59;4974943;28;1427;-72
2022/01/21 07:39:14;;;;;;;;;;;;;;;22.44;19.87;97782.22;4942936;28;1004;-72
2022/01/21 07:41:40;;;;;;;;;;;;;;;21.85;20.26;97792.94;4921646;29;1022;-72
2022/01/21 07:44:05;;;;;;;;;;;;;;;22.15;20.11;97799.34;4917405;29;927;-72
2022/01/21 07:46:31;;;;;;;;;;;;;;;22.28;19.75;97794.47;4889373;29;1910;-72
2022/01/21 07:48:58;;;;;;;;;;;;;;;22.14;20.12;97792.09;4880185;29;1100;-72
2022/01/21 07:51:23;;;;;;;;;;;;;;;21.99;20.50;97807.94;4879786;29;1083;-72
2022/01/21 07:53:49;;;;;;;;;;;;;;;22.46;19.77;97807.25;4879775;29;1264;-72
2022/01/21 07:56:17;;;;;;;;;;;;;;;21.91;20.31;97806.56;4893678;29;958;-74
2022/01/21 07:58:43;;;;;;;;;;;;;;;22.39;19.73;97802.63;4942642;29;1068;-72
2022/01/21 08:01:11;;;;;;;;;;;;;;;22.39;19.89;97801.84;4955729;29;1017;-72
2022/01/21 08:03:37;;;;;;;;;;;;;;;22.26;19.99;97805.47;4985908;28;964;-72
2022/01/21 08:06:02;;;;;;;;;;;;;;;21.97;20.41;97801.94;4994279;28;1910;-73
2022/01/21 08:08:28;;;;;;;;;;;;;;;22.51;19.84;97803.84;5024520;28;909;-73
2022/01/21 08:10:53;;;;;;;;;;;;;;;22.36;19.92;97787.31;5016798;28;1338;-73
2022/01/21 08:13:19;;;;;;;;;;;;;;;21.78;20.51;97804.50;5063990;28;1051;-73
2022/01/21 08:15:45;;;;;;;;;;;;;;;22.38;19.74;97818.03;5056993;28;982;-72
2022/01/21 08:18:10;;;;;;;;;;;;;;;21.76;20.74;97835.34;5073523;28;1154;-72
2022/01/21 08:20:36;;;;;;;;;;;;;;;21.90;20.53;97844.63;5073611;28;1022;-73
2022/01/21 08:23:01;;;;;;;;;;;;;;;22.66;19.60;97850.34;5073729;28;958;-72
2022/01/21 08:25:27;;;;;;;;;;;;;;;21.91;20.56;97847.00;5073465;28;1906;-73
2022/01/21 08:27:52;;;;;;;;;;;;;;;22.42;19.87;97852.72;5073355;28;949;-71
2022/01/21 08:30:18;;;;;;;;;;;;;;;22.05;20.36;97846.56;5073562;28;1049;-72
2022/01/21 08:32:43;;;;;;;;;;;;;;;21.64;20.67;97849.44;5073210;28;1222;-72
2022/01/21 08:35:09;;;;;;;;;;;;;;;22.40;19.80;97855.25;5073296;28;975;-72
2022/01/21 08:37:35;;;;;;;;;;;;;;;22.40;19.83;97857.28;5073325;28;959;-72
2022/01/21 08:40:00;;;;;;;;;;;;;;;22.39;19.68;97852.88;5073021;28;942;-72
2022/01/21 08:42:26;;;;;;;;;;;;;;;22.36;19.91;97861.00;5074889;28;942;-72
2022/01/21 08:44:51;;;;;;;;;;;;;;;22.12;20.35;97856.13;5078292;28;894;-72
2022/01/21 08:47:23;;;;;;;;;;;;;;;22.40;19.99;97869.41;5078820;28;1902;-72
2022/01/21 08:49:51;;;;;;;;;;;;;;;21.62;20.81;97868.94;5076591;28;1105;-72
2022/01/21 08:52:22;;;;;;;;;;;;;;;21.58;20.89;97863.38;5076650;28;1065;-73
2022/01/21 08:54:48;;;;;;;;;;;;;;;22.37;19.65;97864.63;5076682;28;961;-72
2022/01/21 08:57:14;;;;;;;;;;;;;;;22.54;19.59;97866.13;5076766;28;1048;-73
2022/01/21 08:59:39;;;;;;;;;;;;;;;22.28;19.77;97873.84;5076846;28;1174;-73
2022/01/21 09:02:08;;;;;;;;;;;;;;;22.00;20.56;97872.63;5076418;28;1227;-72
2022/01/21 09:04:33;;;;;;;;;;;;;;;21.51;20.93;97881.34;5076983;28;980;-73
2022/01/21 09:06:59;;;;;;;;;;;;;;;21.71;20.76;97884.03;5076673;28;1929;-72
2022/01/21 09:09:25;;;;;;;;;;;;;;;22.29;19.95;97883.94;5076595;28;1196;-72
2022/01/21 09:11:52;;;;;;;;;;;;;;;22.45;19.67;97896.41;5076699;28;1009;-72
2022/01/21 09:14:17;;;;;;;;;;;;;;;22.29;20.03;97885.97;5077230;28;950;-72
2022/01/21 09:16:43;;;;;;;;;;;;;;;21.98;20.35;97882.84;5079031;28;948;-72
2022/01/21 09:19:08;;;;;;;;;;;;;;;22.51;19.69;97883.25;5076089;28;1079;-72
2022/01/21 09:21:35;;;;;;;;;;;;;;;22.54;19.64;97882.34;5078385;28;908;-72
2022/01/21 09:24:00;;;;;;;;;;;;;;;22.11;19.95;97880.84;5078827;28;933;-72
2022/01/21 09:26:26;;;;;;;;;;;;;;;21.53;20.69;97878.06;5078867;28;1968;-72
2022/01/21 09:28:51;;;;;;;;;;;;;;;22.15;20.46;97887.19;5078147;28;894;-72
2022/01/21 09:31:19;;;;;;;;;;;;;;;21.77;20.62;97887.09;5078459;28;1008;-73
2022/01/21 09:33:45;;;;;;;;;;;;;;;22.12;20.35;97885.25;5078343;28;872;-72
2022/01/21 09:36:13;;;;;;;;;;;;;;;22.52;19.51;97890.50;5078130;28;984;-72
2022/01/21 09:38:39;;;;;;;;;;;;;;;22.38;20.04;97879.59;5078126;28;947;-73
2022/01/21 09:41:05;;;;;;;;;;;;;;;22.58;19.83;97894.34;5078510;28;1096;-73
2022/01/21 09:43:32;;;;;;;;;;;;;;;22.22;20.05;97889.78;5059484;28;989;-73
2022/01/21 09:45:59;;;;;;;;;;;;;;;22.52;19.87;97888.44;5093528;28;1980;-72
2022/01/21 09:48:27;;;;;;;;;;;;;;;22.03;20.07;97893.63;5078079;28;888;-73
2022/01/21 09:50:53;;;;;;;;;;;;;;;22.60;19.38;97875.66;5075711;28;1015;-72
2022/01/21 09:53:22;;;;;;;;;;;;;;;21.91;20.23;97869.66;5077108;28;1109;-73
2022/01/21 09:55:47;;;;;;;;;;;;;;;22.02;20.49;97877.84;5076691;28;1126;-72
2022/01/21 09:58:15;;;;;;;;;;;;;;;21.56;20.48;97888.50;5069312;28;1229;-72
2022/01/21 10:00:40;;;;;;;;;;;;;;;22.38;19.82;97876.78;5048672;28;1324;-72
2022/01/21 10:03:06;;;;;;;;;;;;;;;22.24;19.92;97881.66;5065311;28;1268;-72
2022/01/21 10:05:31;;;;;;;;;;;;;;;22.22;20.03;97884.13;5064002;28;1910;-73
2022/01/21 10:07:57;;;;;;;;;;;;;;;21.69;20.62;97880.84;5049063;28;1256;-73
2022/01/21 10:10:22;;;;;;;;;;;;;;;22.34;20.02;97882.56;5048590;28;1586;-73
2022/01/21 10:12:49;;;;;;;;;;;;;;;21.92;20.37;97876.16;5063939;28;1319;-72
2022/01/21 10:15:15;;;;;;;;;;;;;;;22.21;20.13;97876.88;5046025;28;1495;-73
2022/01/21 10:17:56;;;;;;;;;;;;;;;22.21;20.11;97871.22;5061063;28;1292;-72
2022/01/21 10:20:22;;;;;;;;;;;;;;;22.04;20.15;97878.19;5062950;28;1269;-73
2022/01/21 10:23:00;;;;;;;;;;;;;;;22.10;20.11;97873.56;5065359;28;1204;-73
2022/01/21 10:25:26;;;;;;;;;;;;;;;22.26;19.89;97879.16;5070761;28;1909;-72
2022/01/21 10:27:51;;;;;;;;;;;;;;;22.00;20.07;97883.97;5075151;28;856;-73
2022/01/21 10:30:23;;;;;;;;;;;;;;;21.61;20.67;97882.31;4996254;28;1057;-72
2022/01/21 10:32:49;;;;;;;;;;;;;;;22.50;19.75;97881.66;4995819;28;969;-72
2022/01/21 10:35:35;;;;;;;;;;;;;;;21.88;20.44;97873.41;4995604;28;926;-72
2022/01/21 10:38:19;;;;;;;;;;;;;;;21.87;20.66;97873.88;4995538;28;955;-72
2022/01/21 10:40:44;;;;;;;;;;;;;;;22.23;20.02;97880.06;4979182;28;1236;-72
2022/01/21 10:43:13;;;;;;;;;;;;;;;22.38;19.55;97869.06;4995485;28;1062;-72
2022/01/21 10:45:49;;;;;;;;;;;;;;;22.20;20.16;97868.84;4995178;28;1906;-72
2022/01/21 10:48:14;;;;;;;;;;;;;;;21.76;20.51;97860.81;4995027;28;1000;-72
2022/01/21 10:50:39;;;;;;;;;;;;;;;21.41;20.99;97864.66;4995327;28;1003;-72
2022/01/21 10:53:05;;;;;;;;;;;;;;;21.57;20.89;97861.78;4995442;28;957;-72
2022/01/21 10:55:32;;;;;;;;;;;;;;;21.69;20.85;97851.72;4995257;28;945;-73
2022/01/21 10:58:08;;;;;;;;;;;;;;;22.21;20.10;97847.75;4994865;28;1315;-73
2022/01/21 11:00:34;;;;;;;;;;;;;;;22.22;20.12;97849.34;5002343;28;1386;-72
2022/01/21 11:03:12;;;;;;;;;;;;;;;22.34;20.03;97846.50;5034301;28;1300;-72
2022/01/21 11:05:41;;;;;;;;;;;;;;;22.12;20.18;97839.13;5033418;28;1901;-73
2022/01/21 11:08:11;;;;;;;;;;;;;;;21.93;20.54;97835.25;5060268;28;1202;-73
2022/01/21 11:10:39;;;;;;;;;;;;;;;21.85;20.42;97843.94;5076145;28;1208;-72
2022/01/21 11:13:20;;;;;;;;;;;;;;;21.47;20.88;97846.69;5076269;28;1299;-72
2022/01/21 11:15:57;;;;;;;;;;;;;;;21.94;20.37;97839.66;5076014;28;1295;-72
2022/01/21 11:18:26;;;;;;;;;;;;;;;21.84;20.71;97833.84;5073515;28;1205;-72
2022/01/21 11:21:10;;;;;;;;;;;;;;;22.43;19.97;97830.84;5073933;28;1201;-73
2022/01/21 11:23:36;;;;;;;;;;;;;;;21.58;20.76;97835.06;5061701;28;1527;-73
2022/01/21 11:26:03;;;;;;;;;;;;;;;22.03;20.24;97834.13;5047119;28;1895;-73
2022/01/21 11:28:49;;;;;;;;;;;;;;;22.01;20.45;97845.09;5041710;28;1634;-73
2022/01/21 11:31:15;;;;;;;;;;;;;;;22.44;19.99;97840.97;5040879;28;1564;-73
2022/01/21 11:33:41;;;;;;;;;;;;;;;21.86;20.42;97844.72;5052743;28;1550;-72
2022/01/21 11:36:06;;;;;;;;;;;;;;;22.00;20.29;97832.19;5023268;28;1460;-72
2022/01/21 11:38:37;;;;;;;;;;;;;;;22.38;19.96;97839.91;5023549;28;1536;-72
2022/01/21 11:41:03;;;;;;;;;;;;;;;22.11;20.15;97838.34;5024166;28;1496;-72
2022/01/21 11:43:30;;;;;;;;;;;;;;;22.09;20.45;97832.31;5022819;28;1581;-73
2022/01/21 11:50:48;;;;;;;;;;;;;;;22.27;20.22;97829.72;4993330;28;1557;-72
2022/01/21 11:53:14;;;;;;;;;;;;;;;22.58;19.83;97820.63;4993659;28;1481;-72
2022/01/21 11:55:41;;;;;;;;;;;;;;;21.82;20.48;97810.88;4993759;28;1483;-72
2022/01/21 11:58:11;;;;;;;;;;;;;;;22.32;20.03;97814.97;5051218;28;1261;-72
2022/01/21 12:00:36;;;;;;;;;;;;;;;22.47;20.04;97820.19;5053363;28;997;-73
2022/01/21 12:03:02;;;;;;;;;;;;;;;22.52;19.96;97828.13;5053661;28;976;-72
2022/01/21 12:05:27;;;;;;;;;;;;;;;22.36;19.86;97827.00;5053939;28;1981;-71
2022/01/21 12:07:53;;;;;;;;;;;;;;;22.18;19.92;97821.13;5053833;28;924;-72
2022/01/21 12:10:21;;;;;;;;;;;;;;;22.79;19.42;97817.06;5053806;28;934;-72
2022/01/21 12:12:59;;;;;;;;;;;;;;;22.94;19.30;97813.75;5053582;28;885;-72
2022/01/21 12:15:27;;;;;;;;;;;;;;;22.44;20.01;97816.22;5053189;28;914;-72
2022/01/21 12:18:09;;;;;;;;;;;;;;;22.16;20.13;97828.47;5076701;28;858;-72
2022/01/21 12:20:35;;;;;;;;;;;;;;;22.29;20.02;97838.56;5079509;28;933;-72
2022/01/21 12:23:16;;;;;;;;;;;;;;;22.72;19.70;97822.97;5079140;28;1560;-72
2022/01/21 12:26:00;;;;;;;;;;;;;;;22.58;19.87;97826.28;5079381;28;1910;-72
2022/01/21 12:28:25;;;;;;;;;;;;;;;22.27;20.34;97821.22;5079451;28;852;-72
2022/01/21 12:30:54;;;;;;;;;;;;;;;22.40;19.79;97814.75;5078575;28;948;-72
2022/01/21 12:33:51;;;;;;;;;;;;;;;22.15;20.19;97824.06;5063227;28;1265;-73
2022/01/21 12:36:21;;;;;;;;;;;;;;;22.10;20.28;97814.88;5078844;28;1029;-72
2022/01/21 12:41:17;;;;;;;;;;;;;;;22.22;20.16;97815.31;5079068;28;951;-72
2022/01/21 12:43:43;;;;;;;;;;;;;;;21.91;20.83;97812.22;5079041;28;973;-72
2022/01/21 12:46:19;;;;;;;;;;;;;;;22.28;20.23;97811.50;5079203;28;1902;-71
2022/01/21 12:48:45;;;;;;;;;;;;;;;22.23;20.39;97806.38;5078630;28;942;-72
2022/01/21 12:56:43;;;;;;;;;;;;;;;22.30;20.22;97791.19;5077559;28;940;-72
2022/01/21 12:59:19;;;;;;;;;;;;;;;22.39;20.25;97804.69;5078335;28;999;-72
2022/01/21 13:01:44;;;;;;;;;;;;;;;22.28;20.29;97802.97;5078751;28;1235;-72
2022/01/21 13:04:15;;;;;;;;;;;;;;;22.36;19.96;97792.97;5078580;28;954;-73
2022/01/21 13:07:03;;;;;;;;;;;;;;;22.28;20.11;97788.81;5055933;28;1971;-72
2022/01/21 13:09:47;;;;;;;;;;;;;;;22.47;20.09;97791.84;5056443;28;947;-72
2022/01/21 13:12:13;;;;;;;;;;;;;;;22.91;19.47;97780.66;5056238;28;1015;-73
2022/01/21 13:14:45;;;;;;;;;;;;;;;22.87;19.46;97781.53;5040074;28;972;-72
2022/01/21 13:17:14;;;;;;;;;;;;;;;22.29;20.22;97787.56;5056818;28;924;-72
2022/01/21 13:19:43;;;;;;;;;;;;;;;22.19;20.42;97788.69;5039597;28;972;-72
2022/01/21 13:22:37;;;;;;;;;;;;;;;22.44;20.07;97793.56;5036238;28;894;-73
2022/01/21 13:25:08;;;;;;;;;;;;;;;22.76;19.43;97792.47;4996408;28;1056;-72
2022/01/21 13:27:34;;;;;;;;;;;;;;;22.23;20.31;97795.06;4996396;28;1975;-72
2022/01/21 13:30:00;;;;;;;;;;;;;;;22.32;20.00;97803.63;4996487;28;1132;-73
2022/01/21 13:32:26;;;;;;;;;;;;;;;22.14;20.54;97802.66;4996730;28;947;-72
2022/01/21 13:34:51;;;;;;;;;;;;;;;22.39;20.11;97802.63;4996338;28;1045;-72
2022/01/21 13:37:18;;;;;;;;;;;;;;;22.84;19.50;97805.13;5010104;28;1027;-72
2022/01/21 13:39:45;;;;;;;;;;;;;;;22.84;19.57;97793.78;5036229;28;960;-72
2022/01/21 13:42:11;;;;;;;;;;;;;;;22.43;19.94;97813.84;5035722;28;1129;-72
2022/01/21 13:44:45;;;;;;;;;;;;;;;21.97;20.49;97816.09;5035841;28;1027;-72
2022/01/21 13:47:31;;;;;;;;;;;;;;;22.15;20.47;97819.19;5035250;28;1902;-72
2022/01/21 13:49:58;;;;;;;;;;;;;;;23.03;19.37;97833.72;5035583;28;1128;-72
2022/01/21 13:52:36;;;;;;;;;;;;;;;22.39;19.93;97818.84;5039250;28;976;-72
2022/01/21 13:55:02;;;;;;;;;;;;;;;21.73;20.95;97819.22;5055164;28;937;-72
2022/01/21 13:57:27;;;;;;;;;;;;;;;22.27;20.08;97824.03;5035195;28;979;-73
2022/01/21 13:59:53;;;;;;;;;;;;;;;22.42;20.28;97827.22;5035394;28;1269;-72
2022/01/21 14:02:18;;;;;;;;;;;;;;;22.99;19.50;97821.69;5064224;28;1008;-72
2022/01/21 14:04:53;;;;;;;;;;;;;;;22.52;19.57;97817.56;5075400;28;948;-72
2022/01/21 14:07:19;;;;;;;;;;;;;;;22.16;20.40;97834.16;5054768;28;1984;-72
2022/01/21 14:09:45;;;;;;;;;;;;;;;22.22;20.33;97826.66;5038553;28;1022;-72